Norfolk Ns (Chambers Fld) Airport
KNGU : now visible

Airfield :











YOU CAN JOIN US ON...

 
LOGIN :

Register | Disclaimer

   EN    FR    IT 

 









Legend :    VFR   Marginal VFR   IFR   Intensive IFR   Very Intensive IFR
Visi :
Ceiling :
>= 8 km
>= 3000ft
5 to 8 km
1000 to 3000 ft
1500m to 5 km
500 to 1000 ft
800 to 1500m
200 to 500 ft
< 800m
< 200 ft
Symbols :   Thunderstorms  Fog  Heavy snow  Heavy precipitations  Wind > 20 kt






- Airport Elevation : 17 ft


KNGU - Norfolk Ns (Chambers Fld)

CURRENT METAR :
  • 250759Z 04006KT 10SM -RA OVC006 16/14 A3017 RMK AO2 RAB59 SLP215 P0000 T01610144 $

EXPIRED METARs :
  • 250659Z 05006KT 10SM OVC008 16/14 A3017 RMK AO2 RAE21 CIG 006V011 SLP215 P0000 T01610144 $
  • 250615Z 05006KT 5SM -RA BR OVC007 16/14 A3017 RMK AO2 CIG 004V012 P0000 T01610144 $
  • 250559Z 05007KT 3SM -RA BR BKN005 OVC011 16/14 A3018 RMK AO2 CIG 004V009 SLP218 P0000 60000 T01610144 10161 20150 58008 $
  • 250543Z 04008KT 4SM -RA BR OVC005 16/14 A3017 RMK AO2 CIG 004V008 P0000 T01610144 $

TAF TAF KNGU
Valid from the 25 at 07:00 until the 26 at 07:00 UTC


2507/2607 VRB06KT 9999 BR OVC008 QNH3007INS
TEMPO 2508/2509 1800 BR
FM250900 VRB06KT 8000 BR BKN025 OVC150 QNH3007INS
FM260200 VRB06KT 9999 BKN007 QNH3006INS
BECMG 2603/2605 VRB06KT 8000 BR QNH3005INS T12/2509Z T19/2421Z FN00205
KZDC FIR / North America



MET'MAP, your aeronautical weather chart ! - Copyright ORBIFLY December 2007 - Disclaimer

ORBIFLY MET'MAP TEAM :

Programming & Development : Alexandra Zaïnal
Concept & original design : Baudouin d'Aumeries
Assistance for programming : Marc-Olivier Méhu
Technical & hardware support : Manuel Goepfert

Contact : metmap@orbifly.com




SOURCES & CREDITS :

   NOAA       Earth
Advisory